createdAt,value
2017-02-17T00:00:27.042Z,1021.03
2017-02-17T00:01:36.053Z,1021.04
2017-02-17T00:02:45.071Z,1020.99
2017-02-17T00:03:54.088Z,1020.95
2017-02-17T00:05:03.110Z,1020.95
2017-02-17T00:06:12.130Z,1020.9
2017-02-17T00:07:21.148Z,1020.92
2017-02-17T00:08:30.188Z,1020.89
2017-02-17T00:09:39.196Z,1020.88
2017-02-17T00:10:48.233Z,1020.88
2017-02-17T00:11:57.270Z,1020.8
2017-02-17T00:13:06.312Z,1020.78
2017-02-17T00:14:15.362Z,1020.77
2017-02-17T00:15:24.387Z,1020.79
2017-02-17T00:16:33.411Z,1020.77
2017-02-17T00:17:42.424Z,1020.79
2017-02-17T00:18:51.863Z,1020.8
2017-02-17T00:20:00.885Z,1020.79
2017-02-17T00:21:09.902Z,1020.79
2017-02-17T00:22:18.955Z,1020.79
2017-02-17T00:23:27.971Z,1020.78
2017-02-17T00:24:36.987Z,1020.75
2017-02-17T00:25:45.989Z,1020.76
2017-02-17T00:26:55.030Z,1020.76
2017-02-17T00:28:04.046Z,1020.74
2017-02-17T00:29:14.475Z,1020.69
2017-02-17T00:30:23.516Z,1020.74
2017-02-17T00:31:32.565Z,1020.67
2017-02-17T00:32:41.623Z,1020.64
2017-02-17T00:33:50.680Z,1020.61
2017-02-17T00:34:59.749Z,1020.66
2017-02-17T00:36:08.796Z,1020.64
2017-02-17T00:37:17.860Z,1020.63
2017-02-17T00:38:26.924Z,1020.61
2017-02-17T00:39:35.976Z,1020.62
2017-02-17T00:40:45.046Z,1020.59
2017-02-17T00:41:54.234Z,1020.61
2017-02-17T00:43:03.283Z,1020.59
2017-02-17T00:44:12.760Z,1020.58
2017-02-17T00:45:21.814Z,1020.55
2017-02-17T00:46:30.824Z,1020.58
2017-02-17T00:47:39.836Z,1020.55
2017-02-17T00:48:48.841Z,1020.55
2017-02-17T00:49:57.847Z,1020.49
2017-02-17T00:51:06.875Z,1020.54
2017-02-17T00:52:15.903Z,1020.51
2017-02-17T00:53:24.903Z,1020.49
2017-02-17T00:54:33.927Z,1020.52
2017-02-17T00:55:42.937Z,1020.49
2017-02-17T00:56:51.957Z,1020.45
2017-02-17T00:58:00.979Z,1020.44
2017-02-17T00:59:10.006Z,1020.42
2017-02-17T01:00:19.033Z,1020.45
2017-02-17T01:01:28.057Z,1020.43
2017-02-17T01:02:37.058Z,1020.42
2017-02-17T01:03:46.085Z,1020.38
2017-02-17T01:04:55.092Z,1020.41
2017-02-17T01:06:04.107Z,1020.48
2017-02-17T01:07:13.137Z,1020.49
2017-02-17T01:08:22.190Z,1020.48
2017-02-17T01:09:31.240Z,1020.52
2017-02-17T01:10:40.246Z,1020.52
2017-02-17T01:11:49.255Z,1020.51
2017-02-17T01:12:58.279Z,1020.49
2017-02-17T01:14:08.127Z,1020.47
2017-02-17T01:15:17.578Z,1020.47
2017-02-17T01:16:26.609Z,1020.46
2017-02-17T01:17:35.628Z,1020.41
2017-02-17T01:18:44.643Z,1020.42
2017-02-17T01:19:53.681Z,1020.41
2017-02-17T01:21:02.713Z,1020.37
2017-02-17T01:22:11.720Z,1020.39
2017-02-17T01:23:20.740Z,1020.35
2017-02-17T01:24:29.754Z,1020.36
2017-02-17T01:25:38.765Z,1020.29
2017-02-17T01:26:47.781Z,1020.28
2017-02-17T01:27:56.799Z,1020.2
2017-02-17T01:29:05.824Z,1020.22
2017-02-17T01:30:14.836Z,1020.22
2017-02-17T01:31:23.842Z,1020.25
2017-02-17T01:32:32.875Z,1020.2
2017-02-17T01:33:41.885Z,1020.18
2017-02-17T01:34:50.911Z,1020.18
2017-02-17T01:35:59.948Z,1020.17
2017-02-17T01:37:08.970Z,1020.23
2017-02-17T01:38:18.003Z,1020.21
2017-02-17T01:39:27.017Z,1020.22
2017-02-17T01:40:36.058Z,1020.15
2017-02-17T01:41:45.088Z,1020.2
2017-02-17T01:42:54.109Z,1020.16
2017-02-17T01:44:03.128Z,1020.16
2017-02-17T01:45:12.165Z,1020.14
2017-02-17T01:46:21.183Z,1020.12
2017-02-17T01:47:30.226Z,1020.13
2017-02-17T01:48:39.260Z,1020.17
2017-02-17T01:49:48.266Z,1020.16
2017-02-17T01:50:57.266Z,1020.15
2017-02-17T01:52:06.277Z,1020.13
2017-02-17T01:53:15.297Z,1020.05
2017-02-17T01:54:24.339Z,1020.05
2017-02-17T01:55:33.362Z,1020.02
2017-02-17T01:56:42.370Z,1020.07
2017-02-17T01:57:51.381Z,1020.05
2017-02-17T01:59:00.396Z,1020.05
2017-02-17T02:00:09.396Z,1020.03
2017-02-17T02:01:18.422Z,1020.04
2017-02-17T02:02:27.460Z,1019.98
2017-02-17T02:03:36.477Z,1019.94
2017-02-17T02:04:45.484Z,1019.93
2017-02-17T02:05:54.488Z,1019.87
2017-02-17T02:07:03.510Z,1019.89
2017-02-17T02:08:12.525Z,1019.9
2017-02-17T02:09:21.567Z,1019.9
2017-02-17T02:10:30.582Z,1019.83
2017-02-17T02:11:39.601Z,1019.87
2017-02-17T02:12:49.033Z,1019.87
2017-02-17T02:13:58.053Z,1019.85
2017-02-17T02:15:07.073Z,1019.85
2017-02-17T02:16:16.090Z,1019.86
2017-02-17T02:17:25.096Z,1019.89
2017-02-17T02:18:34.112Z,1019.88
2017-02-17T02:19:43.126Z,1019.89
2017-02-17T02:20:52.972Z,1019.87
2017-02-17T02:22:01.980Z,1019.89
2017-02-17T02:23:10.989Z,1019.84
2017-02-17T02:24:19.991Z,1019.82
2017-02-17T02:25:28.995Z,1019.86
2017-02-17T02:26:38.012Z,1019.82
2017-02-17T02:27:47.053Z,1019.78
2017-02-17T02:28:56.043Z,1019.78
2017-02-17T02:30:05.071Z,1019.74
2017-02-17T02:31:14.094Z,1019.77
2017-02-17T02:32:23.118Z,1019.77
2017-02-17T02:33:32.138Z,1019.74
2017-02-17T02:34:41.567Z,1019.76
2017-02-17T02:35:50.576Z,1019.72
2017-02-17T02:36:59.598Z,1019.69
2017-02-17T02:38:08.604Z,1019.68
2017-02-17T02:39:17.602Z,1019.69
2017-02-17T02:40:26.634Z,1019.7
2017-02-17T02:41:35.666Z,1019.72
2017-02-17T02:42:44.674Z,1019.67
2017-02-17T02:43:53.679Z,1019.66
2017-02-17T02:45:03.105Z,1019.67
2017-02-17T02:46:12.109Z,1019.67
2017-02-17T02:47:21.121Z,1019.68
2017-02-17T02:48:30.145Z,1019.71
2017-02-17T02:49:39.156Z,1019.68
2017-02-17T02:50:48.179Z,1019.64
2017-02-17T02:51:57.205Z,1019.63
2017-02-17T02:53:06.641Z,1019.61
2017-02-17T02:54:15.649Z,1019.57
2017-02-17T02:55:24.663Z,1019.57
2017-02-17T02:56:33.682Z,1019.59
2017-02-17T02:57:42.696Z,1019.6
2017-02-17T02:58:51.736Z,1019.58
2017-02-17T03:00:00.760Z,1019.6
2017-02-17T03:01:09.771Z,1019.58
2017-02-17T03:02:18.785Z,1019.6
2017-02-17T03:03:27.788Z,1019.6
2017-02-17T03:04:36.809Z,1019.59
2017-02-17T03:05:45.840Z,1019.59
2017-02-17T03:06:54.867Z,1019.56
2017-02-17T03:08:03.873Z,1019.6
2017-02-17T03:09:12.886Z,1019.59
2017-02-17T03:10:21.910Z,1019.53
2017-02-17T03:11:34.406Z,1019.54
2017-02-17T03:12:43.451Z,1019.54
2017-02-17T03:13:52.501Z,1019.57
2017-02-17T03:15:01.570Z,1019.6
2017-02-17T03:16:10.623Z,1019.59
2017-02-17T03:17:19.675Z,1019.64
2017-02-17T03:18:28.723Z,1019.58
2017-02-17T03:19:37.759Z,1019.6
2017-02-17T03:20:46.806Z,1019.59
2017-02-17T03:21:55.850Z,1019.56
2017-02-17T03:23:04.893Z,1019.54
2017-02-17T03:24:13.942Z,1019.51
2017-02-17T03:25:22.987Z,1019.52
2017-02-17T03:26:32.031Z,1019.49
2017-02-17T03:27:41.051Z,1019.5
2017-02-17T03:28:50.476Z,1019.47
2017-02-17T03:29:59.500Z,1019.4
2017-02-17T03:31:08.913Z,1019.42
2017-02-17T03:32:17.927Z,1019.4
2017-02-17T03:33:26.942Z,1019.39
2017-02-17T03:34:35.941Z,1019.41
2017-02-17T03:35:45.390Z,1019.43
2017-02-17T03:36:54.403Z,1019.48
2017-02-17T03:38:03.418Z,1019.49
2017-02-17T03:39:12.428Z,1019.5
2017-02-17T03:40:21.436Z,1019.54
2017-02-17T03:41:30.859Z,1019.56
2017-02-17T03:42:39.874Z,1019.51
2017-02-17T03:43:48.891Z,1019.52
2017-02-17T03:44:57.900Z,1019.49
2017-02-17T03:46:06.904Z,1019.5
2017-02-17T03:47:15.928Z,1019.47
2017-02-17T03:48:25.366Z,1019.45
2017-02-17T03:49:34.379Z,1019.42
2017-02-17T03:50:43.392Z,1019.41
2017-02-17T03:51:52.436Z,1019.4
2017-02-17T03:53:01.458Z,1019.39
2017-02-17T03:54:10.472Z,1019.38
2017-02-17T03:55:19.487Z,1019.43
2017-02-17T03:56:28.510Z,1019.4
2017-02-17T03:57:37.528Z,1019.37
2017-02-17T03:58:46.529Z,1019.35
2017-02-17T03:59:55.531Z,1019.36
2017-02-17T04:01:04.547Z,1019.35
2017-02-17T04:02:13.970Z,1019.3
2017-02-17T04:03:22.986Z,1019.3
2017-02-17T04:04:32.089Z,1019.3
2017-02-17T04:05:41.695Z,1019.32
2017-02-17T04:06:51.137Z,1019.33
2017-02-17T04:08:00.156Z,1019.29
2017-02-17T04:09:09.192Z,1019.31
2017-02-17T04:10:18.224Z,1019.29
2017-02-17T04:11:27.656Z,1019.27
2017-02-17T04:12:36.744Z,1019.33
2017-02-17T04:13:45.759Z,1019.28
2017-02-17T04:14:55.189Z,1019.27
2017-02-17T04:16:04.214Z,1019.23
2017-02-17T04:17:13.629Z,1019.19
2017-02-17T04:18:22.668Z,1019.2
2017-02-17T04:19:32.098Z,1019.23
2017-02-17T04:20:41.105Z,1019.21
2017-02-17T04:21:50.095Z,1019.23
2017-02-17T04:22:59.107Z,1019.16
2017-02-17T04:24:08.125Z,1019.13
2017-02-17T04:25:17.171Z,1019.1
2017-02-17T04:26:26.176Z,1019.13
2017-02-17T04:27:35.199Z,1019.07
2017-02-17T04:28:44.223Z,1019.1
2017-02-17T04:29:53.236Z,1019.08
2017-02-17T04:31:02.253Z,1019.04
2017-02-17T04:32:11.690Z,1019.03
2017-02-17T04:33:20.712Z,1019.01
2017-02-17T04:34:30.157Z,1019
2017-02-17T04:35:39.177Z,1018.99
2017-02-17T04:36:48.188Z,1019
2017-02-17T04:37:57.654Z,1019
2017-02-17T04:39:06.681Z,1019.02
2017-02-17T04:40:16.108Z,1019.02
2017-02-17T04:41:25.124Z,1018.99
2017-02-17T04:42:34.128Z,1018.97
2017-02-17T04:43:43.139Z,1018.99
2017-02-17T04:44:52.168Z,1018.95
2017-02-17T04:46:01.191Z,1018.95
2017-02-17T04:47:10.181Z,1018.91
2017-02-17T04:48:19.202Z,1018.95
2017-02-17T04:49:28.224Z,1018.91
2017-02-17T04:50:37.649Z,1018.93
2017-02-17T04:51:46.665Z,1018.91
2017-02-17T04:52:55.673Z,1018.9
2017-02-17T04:54:04.691Z,1018.89
2017-02-17T04:55:13.716Z,1018.87
2017-02-17T04:56:22.740Z,1018.84
2017-02-17T04:57:31.748Z,1018.83
2017-02-17T04:58:40.762Z,1018.82
2017-02-17T04:59:49.773Z,1018.8
2017-02-17T05:00:58.778Z,1018.79
2017-02-17T05:02:07.814Z,1018.75
2017-02-17T05:03:16.835Z,1018.8
2017-02-17T05:04:25.861Z,1018.75
2017-02-17T05:05:34.885Z,1018.75
2017-02-17T05:06:43.893Z,1018.72
2017-02-17T05:07:53.334Z,1018.7
2017-02-17T05:09:02.365Z,1018.69
2017-02-17T05:10:11.382Z,1018.66
2017-02-17T05:11:20.395Z,1018.67
2017-02-17T05:12:29.408Z,1018.63
2017-02-17T05:13:38.863Z,1018.6
2017-02-17T05:14:48.291Z,1018.59
2017-02-17T05:15:57.333Z,1018.56
2017-02-17T05:17:06.354Z,1018.52
2017-02-17T05:18:15.370Z,1018.53
2017-02-17T05:19:24.387Z,1018.55
2017-02-17T05:20:33.424Z,1018.51
2017-02-17T05:21:42.833Z,1018.57
2017-02-17T05:22:51.862Z,1018.55
2017-02-17T05:24:00.898Z,1018.53
2017-02-17T05:25:09.899Z,1018.49
2017-02-17T05:26:18.934Z,1018.51
2017-02-17T05:27:27.955Z,1018.57
2017-02-17T05:28:36.968Z,1018.47
2017-02-17T05:29:46.014Z,1018.49
2017-02-17T05:30:55.036Z,1018.51
2017-02-17T05:32:04.494Z,1018.48
2017-02-17T05:33:13.666Z,1018.46
2017-02-17T05:34:23.333Z,1018.45
2017-02-17T05:35:32.352Z,1018.45
2017-02-17T05:36:41.358Z,1018.44
2017-02-17T05:37:50.389Z,1018.48
2017-02-17T05:38:59.413Z,1018.43
2017-02-17T05:40:08.438Z,1018.4
2017-02-17T05:41:17.479Z,1018.39
2017-02-17T05:42:26.504Z,1018.36
2017-02-17T05:43:35.520Z,1018.34
2017-02-17T05:44:44.540Z,1018.31
2017-02-17T05:45:53.569Z,1018.32
2017-02-17T05:47:02.584Z,1018.36
2017-02-17T05:48:11.597Z,1018.32
2017-02-17T05:49:20.608Z,1018.34
2017-02-17T05:50:29.611Z,1018.32
2017-02-17T05:51:38.637Z,1018.36
2017-02-17T05:52:47.658Z,1018.31
2017-02-17T05:53:56.664Z,1018.32
2017-02-17T05:55:05.683Z,1018.28
2017-02-17T05:56:14.685Z,1018.28
2017-02-17T05:57:23.736Z,1018.29
2017-02-17T05:58:32.752Z,1018.34
2017-02-17T05:59:41.777Z,1018.32
2017-02-17T06:00:50.784Z,1018.27
2017-02-17T06:01:59.810Z,1018.26
2017-02-17T06:03:08.823Z,1018.27
2017-02-17T06:04:17.850Z,1018.22
2017-02-17T06:05:26.865Z,1018.16
2017-02-17T06:06:36.291Z,1018.19
2017-02-17T06:07:45.321Z,1018.15
2017-02-17T06:08:54.332Z,1018.17
2017-02-17T06:10:03.356Z,1018.18
2017-02-17T06:11:12.792Z,1018.18
2017-02-17T06:12:21.835Z,1018.19
2017-02-17T06:13:30.853Z,1018.19
2017-02-17T06:14:39.893Z,1018.19
2017-02-17T06:15:48.901Z,1018.17
2017-02-17T06:16:57.927Z,1018.17
2017-02-17T06:18:07.357Z,1018.19
2017-02-17T06:19:16.381Z,1018.18
2017-02-17T06:20:25.394Z,1018.24
2017-02-17T06:21:34.400Z,1018.23
2017-02-17T06:22:43.851Z,1018.25
2017-02-17T06:23:52.866Z,1018.26
2017-02-17T06:25:01.888Z,1018.25
2017-02-17T06:26:10.923Z,1018.3
2017-02-17T06:27:19.937Z,1018.35
2017-02-17T06:28:28.960Z,1018.35
2017-02-17T06:29:37.974Z,1018.38
2017-02-17T06:30:46.975Z,1018.37
2017-02-17T06:31:55.972Z,1018.34
2017-02-17T06:33:04.984Z,1018.36
2017-02-17T06:34:14.410Z,1018.37
2017-02-17T06:35:23.432Z,1018.33
2017-02-17T06:36:32.457Z,1018.39
2017-02-17T06:37:41.522Z,1018.38
2017-02-17T06:38:50.565Z,1018.39
2017-02-17T06:39:59.580Z,1018.36
2017-02-17T06:41:08.598Z,1018.33
2017-02-17T06:42:17.622Z,1018.36
2017-02-17T06:43:26.639Z,1018.37
2017-02-17T06:44:35.655Z,1018.33
2017-02-17T06:45:44.688Z,1018.33
2017-02-17T06:46:53.715Z,1018.33
2017-02-17T06:48:03.151Z,1018.3
2017-02-17T06:49:12.147Z,1018.32
2017-02-17T06:50:21.189Z,1018.34
2017-02-17T06:51:30.622Z,1018.35
2017-02-17T06:52:39.646Z,1018.36
2017-02-17T06:53:49.489Z,1018.35
2017-02-17T06:54:58.512Z,1018.36
2017-02-17T06:56:07.529Z,1018.35
2017-02-17T06:57:16.555Z,1018.39
2017-02-17T06:58:25.584Z,1018.34
2017-02-17T06:59:34.606Z,1018.38
2017-02-17T07:00:43.623Z,1018.32
2017-02-17T07:01:52.618Z,1018.35
2017-02-17T07:03:01.641Z,1018.35
2017-02-17T07:04:10.654Z,1018.3
2017-02-17T07:05:19.665Z,1018.32
2017-02-17T07:06:28.685Z,1018.38
2017-02-17T07:07:37.707Z,1018.33
2017-02-17T07:08:46.714Z,1018.38
2017-02-17T07:09:55.743Z,1018.35
2017-02-17T07:11:04.785Z,1018.33
2017-02-17T07:12:13.771Z,1018.37
2017-02-17T07:13:22.771Z,1018.33
2017-02-17T07:14:32.222Z,1018.31
2017-02-17T07:15:41.652Z,1018.31
2017-02-17T07:16:50.653Z,1018.29
2017-02-17T07:17:59.658Z,1018.29
2017-02-17T07:19:09.099Z,1018.3
2017-02-17T07:20:18.105Z,1018.27
2017-02-17T07:21:27.102Z,1018.28
2017-02-17T07:22:36.125Z,1018.24
2017-02-17T07:23:45.140Z,1018.23
2017-02-17T07:24:54.164Z,1018.22
2017-02-17T07:26:03.587Z,1018.26
2017-02-17T07:27:12.582Z,1018.26
2017-02-17T07:28:21.587Z,1018.23
2017-02-17T07:29:30.620Z,1018.18
2017-02-17T07:30:39.652Z,1018.19
2017-02-17T07:31:48.693Z,1018.2
2017-02-17T07:32:57.724Z,1018.21
2017-02-17T07:34:06.744Z,1018.2
2017-02-17T07:35:15.760Z,1018.21
2017-02-17T07:36:24.798Z,1018.2
2017-02-17T07:37:33.899Z,1018.2
2017-02-17T07:38:42.921Z,1018.21
2017-02-17T07:39:51.938Z,1018.16
2017-02-17T07:41:00.961Z,1018.19
2017-02-17T07:42:10.023Z,1018.16
2017-02-17T07:43:19.047Z,1018.14
2017-02-17T07:44:28.068Z,1018.16
2017-02-17T07:45:37.525Z,1018.14
2017-02-17T07:46:46.524Z,1018.17
2017-02-17T07:47:55.540Z,1018.14
2017-02-17T07:49:04.577Z,1018.12
2017-02-17T07:50:13.628Z,1018.16
2017-02-17T07:51:22.638Z,1018.12
2017-02-17T07:52:31.652Z,1018.14
2017-02-17T07:53:40.657Z,1018.1
2017-02-17T07:54:50.080Z,1018.11
2017-02-17T07:55:59.102Z,1018.14
2017-02-17T07:57:08.132Z,1018.13
2017-02-17T07:58:17.156Z,1018.07
2017-02-17T07:59:26.169Z,1018.12
2017-02-17T08:00:35.207Z,1018.11
2017-02-17T08:01:44.223Z,1018.08
2017-02-17T08:02:53.259Z,1018.1
2017-02-17T08:04:02.274Z,1018.08
2017-02-17T08:05:11.351Z,1018.04
2017-02-17T08:06:20.365Z,1018.05
2017-02-17T08:07:29.391Z,1018.12
2017-02-17T08:08:38.419Z,1018.11
2017-02-17T08:09:47.457Z,1018.09
2017-02-17T08:10:56.904Z,1018.04
2017-02-17T08:12:05.931Z,1018.08
2017-02-17T08:13:14.951Z,1018.05
2017-02-17T08:14:23.956Z,1018.04
2017-02-17T08:15:32.970Z,1018.02
2017-02-17T08:16:41.994Z,1018
2017-02-17T08:17:50.994Z,1018.03
2017-02-17T08:19:00.054Z,1018.04
2017-02-17T08:20:09.066Z,1018.01
2017-02-17T08:21:18.099Z,1018.07
2017-02-17T08:22:27.114Z,1018.1
2017-02-17T08:23:36.553Z,1018.12
2017-02-17T08:24:45.992Z,1018.08
2017-02-17T08:25:55.024Z,1018.03
2017-02-17T08:27:04.069Z,1018.1
2017-02-17T08:28:13.072Z,1018.08
2017-02-17T08:29:22.093Z,1018.05
2017-02-17T08:30:31.117Z,1018.05
2017-02-17T08:31:40.134Z,1018.05
2017-02-17T08:32:49.149Z,1018.05
2017-02-17T08:33:58.182Z,1018.05
2017-02-17T08:35:07.209Z,1018.03
2017-02-17T08:36:16.227Z,1018.01
2017-02-17T08:37:25.263Z,1018
2017-02-17T08:38:34.706Z,1018.01
2017-02-17T08:39:43.717Z,1017.98
2017-02-17T08:40:52.754Z,1018.01
2017-02-17T08:42:01.765Z,1017.99
2017-02-17T08:43:10.804Z,1017.96
2017-02-17T08:44:19.828Z,1018
2017-02-17T08:45:28.841Z,1017.99
2017-02-17T08:46:37.862Z,1017.95
2017-02-17T08:47:46.879Z,1017.94
2017-02-17T08:48:55.895Z,1017.91
2017-02-17T08:50:04.915Z,1017.96
2017-02-17T08:51:13.940Z,1017.93
2017-02-17T08:52:22.956Z,1017.94
2017-02-17T08:53:31.972Z,1017.91
2017-02-17T08:54:40.993Z,1017.94
2017-02-17T08:55:50.438Z,1017.95
2017-02-17T08:56:59.453Z,1017.95
2017-02-17T08:58:08.455Z,1017.94
2017-02-17T08:59:17.454Z,1017.91
2017-02-17T09:00:26.492Z,1017.88
2017-02-17T09:01:35.514Z,1017.9
2017-02-17T09:02:44.529Z,1017.89
2017-02-17T09:03:53.533Z,1017.89
2017-02-17T09:05:02.586Z,1017.9
2017-02-17T09:06:11.602Z,1017.9
2017-02-17T09:07:20.638Z,1017.89
2017-02-17T09:08:29.658Z,1017.88
2017-02-17T09:09:38.682Z,1017.88
2017-02-17T09:10:47.691Z,1017.89
2017-02-17T09:11:56.702Z,1017.86
2017-02-17T09:13:06.133Z,1017.85
2017-02-17T09:14:15.562Z,1017.85
2017-02-17T09:15:25.057Z,1017.83
2017-02-17T09:16:34.081Z,1017.81
2017-02-17T09:17:43.098Z,1017.84
2017-02-17T09:18:52.134Z,1017.82
2017-02-17T09:20:01.156Z,1017.83
2017-02-17T09:21:10.183Z,1017.79
2017-02-17T09:22:19.203Z,1017.84
2017-02-17T09:23:28.639Z,1017.81
2017-02-17T09:24:37.655Z,1017.83
2017-02-17T09:25:46.675Z,1017.84
2017-02-17T09:26:55.683Z,1017.81
2017-02-17T09:28:04.701Z,1017.82
2017-02-17T09:29:13.703Z,1017.8
2017-02-17T09:30:22.720Z,1017.85
2017-02-17T09:31:31.729Z,1017.82
2017-02-17T09:32:40.747Z,1017.83
2017-02-17T09:33:49.768Z,1017.82
2017-02-17T09:34:58.809Z,1017.83
2017-02-17T09:36:08.253Z,1017.82
2017-02-17T09:37:17.253Z,1017.84
2017-02-17T09:38:26.261Z,1017.82
2017-02-17T09:39:35.689Z,1017.82
2017-02-17T09:40:44.716Z,1017.83
2017-02-17T09:41:53.724Z,1017.81
2017-02-17T09:43:02.768Z,1017.82
2017-02-17T09:44:11.792Z,1017.83
2017-02-17T09:45:20.819Z,1017.83
2017-02-17T09:46:29.851Z,1017.79
2017-02-17T09:47:38.870Z,1017.83
2017-02-17T09:48:47.895Z,1017.82
2017-02-17T09:49:56.891Z,1017.82
2017-02-17T09:51:06.324Z,1017.83
2017-02-17T09:52:15.371Z,1017.78
2017-02-17T09:53:24.385Z,1017.81
2017-02-17T09:54:33.400Z,1017.8
2017-02-17T09:55:42.418Z,1017.82
2017-02-17T09:56:51.445Z,1017.8
2017-02-17T09:58:00.463Z,1017.81
2017-02-17T09:59:09.484Z,1017.79
2017-02-17T10:00:18.488Z,1017.8
2017-02-17T10:01:27.513Z,1017.73
2017-02-17T10:02:36.528Z,1017.71
2017-02-17T10:03:45.535Z,1017.75
2017-02-17T10:04:54.567Z,1017.79
2017-02-17T10:06:03.622Z,1017.82
2017-02-17T10:07:12.651Z,1017.81
2017-02-17T10:08:21.676Z,1017.8
2017-02-17T10:09:30.684Z,1017.82
2017-02-17T10:10:39.698Z,1017.83
2017-02-17T10:11:48.711Z,1017.85
2017-02-17T10:12:57.730Z,1017.84
2017-02-17T10:14:06.755Z,1017.83
2017-02-17T10:15:15.831Z,1017.81
2017-02-17T10:16:25.258Z,1017.81
2017-02-17T10:17:34.259Z,1017.81
2017-02-17T10:18:43.304Z,1017.84
2017-02-17T10:19:52.358Z,1017.83
2017-02-17T10:21:01.384Z,1017.83
2017-02-17T10:22:10.398Z,1017.86
2017-02-17T10:23:19.466Z,1017.86
2017-02-17T10:24:28.485Z,1017.83
2017-02-17T10:25:37.501Z,1017.82
2017-02-17T10:26:46.525Z,1017.87
2017-02-17T10:27:55.532Z,1017.85
2017-02-17T10:29:04.566Z,1017.84
2017-02-17T10:30:13.607Z,1017.8
2017-02-17T10:31:22.625Z,1017.87
2017-02-17T10:32:31.648Z,1017.82
2017-02-17T10:33:40.659Z,1017.85
2017-02-17T10:34:49.695Z,1017.81
2017-02-17T10:35:59.127Z,1017.83
2017-02-17T10:37:08.587Z,1017.8
2017-02-17T10:38:17.617Z,1017.76
2017-02-17T10:39:26.650Z,1017.79
2017-02-17T10:40:35.732Z,1017.75
2017-02-17T10:41:44.745Z,1017.75
2017-02-17T10:42:53.772Z,1017.73
2017-02-17T10:44:02.777Z,1017.75
2017-02-17T10:45:11.810Z,1017.71
2017-02-17T10:46:20.834Z,1017.73
2017-02-17T10:47:29.860Z,1017.69
2017-02-17T10:48:38.880Z,1017.72
2017-02-17T10:49:47.913Z,1017.68
2017-02-17T10:50:56.948Z,1017.68
2017-02-17T10:52:05.971Z,1017.69
2017-02-17T10:53:15.007Z,1017.64
2017-02-17T10:54:24.026Z,1017.64
2017-02-17T10:55:33.019Z,1017.68
2017-02-17T10:56:42.046Z,1017.67
2017-02-17T10:57:51.049Z,1017.65
2017-02-17T10:59:00.085Z,1017.65
2017-02-17T11:00:09.153Z,1017.65
2017-02-17T11:01:18.167Z,1017.66
2017-02-17T11:02:27.618Z,1017.66
2017-02-17T11:03:36.625Z,1017.66
2017-02-17T11:04:45.658Z,1017.62
2017-02-17T11:05:54.668Z,1017.63
2017-02-17T11:07:03.696Z,1017.61
2017-02-17T11:08:12.715Z,1017.62
2017-02-17T11:09:21.724Z,1017.61
2017-02-17T11:10:30.724Z,1017.59
2017-02-17T11:11:40.176Z,1017.62
2017-02-17T11:12:49.185Z,1017.6
2017-02-17T11:13:58.200Z,1017.59
2017-02-17T11:15:07.211Z,1017.58
2017-02-17T11:16:16.240Z,1017.59
2017-02-17T11:17:25.247Z,1017.54
2017-02-17T11:18:34.267Z,1017.55
2017-02-17T11:19:43.282Z,1017.53
2017-02-17T11:20:52.316Z,1017.54
2017-02-17T11:22:01.347Z,1017.55
2017-02-17T11:23:10.372Z,1017.56
2017-02-17T11:24:19.405Z,1017.56
2017-02-17T11:25:28.882Z,1017.52
2017-02-17T11:26:37.896Z,1017.51
2017-02-17T11:27:47.347Z,1017.54
2017-02-17T11:28:56.379Z,1017.54
2017-02-17T11:30:05.414Z,1017.52
2017-02-17T11:31:14.425Z,1017.51
2017-02-17T11:32:23.432Z,1017.52
2017-02-17T11:33:32.437Z,1017.49
2017-02-17T11:34:41.466Z,1017.5
2017-02-17T11:35:50.485Z,1017.5
2017-02-17T11:36:59.498Z,1017.5
2017-02-17T11:38:08.528Z,1017.46
2017-02-17T11:39:17.548Z,1017.47
2017-02-17T11:40:26.576Z,1017.45
2017-02-17T11:41:35.589Z,1017.48
2017-02-17T11:42:44.627Z,1017.42
2017-02-17T11:43:53.635Z,1017.4
2017-02-17T11:45:02.663Z,1017.41
2017-02-17T11:46:11.674Z,1017.45
2017-02-17T11:47:20.721Z,1017.4
2017-02-17T11:48:29.730Z,1017.38
2017-02-17T11:49:38.756Z,1017.34
2017-02-17T11:50:47.789Z,1017.39
2017-02-17T11:51:56.807Z,1017.38
2017-02-17T11:53:05.848Z,1017.38
2017-02-17T11:54:14.869Z,1017.38
2017-02-17T11:55:23.908Z,1017.37
2017-02-17T11:56:33.360Z,1017.39
2017-02-17T11:57:42.407Z,1017.39
2017-02-17T11:58:51.423Z,1017.38
2017-02-17T12:00:00.456Z,1017.39
2017-02-17T12:01:09.892Z,1017.43
2017-02-17T12:02:18.901Z,1017.42
2017-02-17T12:03:28.118Z,1017.41
2017-02-17T12:04:37.131Z,1017.47
2017-02-17T12:05:46.149Z,1017.47
2017-02-17T12:06:55.198Z,1017.46
2017-02-17T12:08:04.641Z,1017.45
2017-02-17T12:09:13.651Z,1017.47
2017-02-17T12:10:22.679Z,1017.47
2017-02-17T12:11:31.688Z,1017.47
2017-02-17T12:12:41.556Z,1017.43
2017-02-17T12:13:50.580Z,1017.42
2017-02-17T12:14:59.591Z,1017.42
2017-02-17T12:16:08.702Z,1017.49
2017-02-17T12:17:17.719Z,1017.43
2017-02-17T12:18:26.753Z,1017.41
2017-02-17T12:19:35.780Z,1017.43
2017-02-17T12:20:44.796Z,1017.41
2017-02-17T12:21:53.808Z,1017.38
2017-02-17T12:23:02.828Z,1017.39
2017-02-17T12:24:11.871Z,1017.4
2017-02-17T12:25:20.892Z,1017.43
2017-02-17T12:26:29.915Z,1017.4
2017-02-17T12:27:38.943Z,1017.41
2017-02-17T12:28:47.967Z,1017.43
2017-02-17T12:29:56.995Z,1017.38
2017-02-17T12:31:06.006Z,1017.39
2017-02-17T12:32:15.027Z,1017.38
2017-02-17T12:33:24.032Z,1017.37
2017-02-17T12:34:33.059Z,1017.37
2017-02-17T12:35:42.075Z,1017.36
2017-02-17T12:36:51.098Z,1017.34
2017-02-17T12:38:00.115Z,1017.34
2017-02-17T12:39:09.127Z,1017.35
2017-02-17T12:40:18.156Z,1017.34
2017-02-17T12:41:27.168Z,1017.34
2017-02-17T12:42:36.181Z,1017.33
2017-02-17T12:43:45.608Z,1017.33
2017-02-17T12:44:54.654Z,1017.3
2017-02-17T12:46:04.098Z,1017.33
2017-02-17T12:47:13.124Z,1017.32
2017-02-17T12:48:22.141Z,1017.31
2017-02-17T12:49:31.168Z,1017.3
2017-02-17T12:50:40.199Z,1017.3
2017-02-17T12:51:49.215Z,1017.27
2017-02-17T12:52:58.243Z,1017.27
2017-02-17T12:54:07.255Z,1017.29
2017-02-17T12:55:16.276Z,1017.25
2017-02-17T12:56:25.303Z,1017.24
2017-02-17T12:57:34.335Z,1017.25
2017-02-17T12:58:43.354Z,1017.3
2017-02-17T12:59:52.355Z,1017.27
2017-02-17T13:01:01.769Z,1017.25
2017-02-17T13:02:10.803Z,1017.28
2017-02-17T13:03:20.639Z,1017.27
2017-02-17T13:04:29.650Z,1017.27
2017-02-17T13:05:38.692Z,1017.26
2017-02-17T13:06:47.700Z,1017.28
2017-02-17T13:07:56.711Z,1017.23
2017-02-17T13:09:05.737Z,1017.23
2017-02-17T13:10:14.766Z,1017.24
2017-02-17T13:11:24.205Z,1017.2
2017-02-17T13:12:33.221Z,1017.23
2017-02-17T13:13:42.247Z,1017.18
2017-02-17T13:14:51.258Z,1017.2
2017-02-17T13:16:00.277Z,1017.22
2017-02-17T13:17:09.296Z,1017.23
2017-02-17T13:18:18.731Z,1017.19
2017-02-17T13:19:27.798Z,1017.27
2017-02-17T13:20:36.833Z,1017.24
2017-02-17T13:21:45.827Z,1017.2
2017-02-17T13:22:54.837Z,1017.23
2017-02-17T13:24:03.853Z,1017.21
2017-02-17T13:25:12.882Z,1017.21
2017-02-17T13:26:21.903Z,1017.21
2017-02-17T13:27:30.900Z,1017.22
2017-02-17T13:28:39.915Z,1017.19
2017-02-17T13:29:48.940Z,1017.22
2017-02-17T13:30:57.953Z,1017.22
2017-02-17T13:32:06.956Z,1017.24
2017-02-17T13:33:15.969Z,1017.25
2017-02-17T13:34:25.410Z,1017.26
2017-02-17T13:35:34.450Z,1017.27
2017-02-17T13:36:43.882Z,1017.24
2017-02-17T13:37:52.948Z,1017.24
2017-02-17T13:39:01.978Z,1017.22
2017-02-17T13:40:11.007Z,1017.25
2017-02-17T13:41:20.031Z,1017.26
2017-02-17T13:42:29.058Z,1017.26
2017-02-17T13:43:38.089Z,1017.24
2017-02-17T13:44:47.107Z,1017.24
2017-02-17T13:45:56.127Z,1017.25
2017-02-17T13:47:05.563Z,1017.27
2017-02-17T13:48:15.025Z,1017.24
2017-02-17T13:49:24.051Z,1017.28
2017-02-17T13:50:33.096Z,1017.28
2017-02-17T13:51:42.548Z,1017.33
2017-02-17T13:52:51.576Z,1017.34
2017-02-17T13:54:00.586Z,1017.37
2017-02-17T13:55:09.610Z,1017.38
2017-02-17T13:56:18.611Z,1017.41
2017-02-17T13:57:27.616Z,1017.36
2017-02-17T13:58:36.639Z,1017.41